PWSweather.com
Personal Weather Stations
Station Observations
KCAOCEAN4
Jeffries Ranch, Oceanside, CA 92057

Jeffries RanchOceanside, CA 92057

Lat: 33.2463208, Lon: -117.25335080000002

Elevation: 207

Station Type: Davis Vantage Vue

jeffriesranchweather.com

High Low Average
Temperature 74.1°F23.4°C 43.5°F6.4°C 57.2°F14.0°C
Dew Point 41.4°F5.2°C 29.1°F-1.6°C 34.6°F1.4°C
Winds 8.9 mph 14.3 kmh Calm Calm 3.0 mph SE4.8 kmh SE
Wind Gusts 19.9 mph32.0 kmh 0.9 mph1.4 kmh 6.0 mph9.7 kmh
Humidity 85% 20% 49%
Pressure 30.11 in1019.6 mb 29.99 in1015.6 mb -
Precipitation 0.00 in0.0 mm - -
Hour Temp Dew Point Humidity Winds Wind Gusts Pressure Precip Precip Rate Daily Precip Total
12:06 AM 48.0°F8.9°C 41.9°F5.5°C 79% 2.0 mph ENE3.2 kmh ENE 4.0 mph6.4 kmh 30.10 in1019.3 mb 0.00 in0.0 mm 0.00 in0.0 mm 0.00 in0.0 mm
12:16 AM 47.8°F8.8°C 41.7°F5.4°C 79% 0.9 mph E1.4 kmh E 4.0 mph6.4 kmh 30.10 in1019.3 mb 0.00 in0.0 mm 0.00 in0.0 mm 0.00 in0.0 mm
12:26 AM 47.7°F8.7°C 41.7°F5.4°C 80% 0.9 mph E1.4 kmh E 5.0 mph8.0 kmh 30.10 in1019.3 mb 0.00 in0.0 mm 0.00 in0.0 mm 0.00 in0.0 mm
12:36 AM 47.7°F8.7°C 41.7°F5.4°C 80% 2.0 mph E3.2 kmh E 4.9 mph7.9 kmh 30.10 in1019.3 mb 0.00 in0.0 mm 0.00 in0.0 mm 0.00 in0.0 mm
12:46 AM 47.5°F8.6°C 41.5°F5.3°C 80% 0.9 mph NE1.4 kmh NE 4.9 mph7.9 kmh 30.10 in1019.3 mb 0.00 in0.0 mm 0.00 in0.0 mm 0.00 in0.0 mm
12:56 AM 47.1°F8.4°C 41.4°F5.2°C 80% 0.9 mph SE1.4 kmh SE 2.9 mph4.7 kmh 30.10 in1019.3 mb 0.00 in0.0 mm 0.00 in0.0 mm 0.00 in0.0 mm
01:06 AM 47.1°F8.4°C 41.4°F5.2°C 80% 2.0 mph ENE3.2 kmh ENE 5.0 mph8.0 kmh 30.10 in1019.3 mb 0.00 in0.0 mm 0.00 in0.0 mm 0.00 in0.0 mm
01:16 AM 46.8°F8.2°C 41.2°F5.1°C 81% 0.9 mph E1.4 kmh E 4.0 mph6.4 kmh 30.10 in1019.3 mb 0.00 in0.0 mm 0.00 in0.0 mm 0.00 in0.0 mm
01:26 AM 46.6°F8.1°C 41.0°F5.0°C 81% 0.9 mph NE1.4 kmh NE 2.9 mph4.7 kmh 30.10 in1019.3 mb 0.00 in0.0 mm 0.00 in0.0 mm 0.00 in0.0 mm
01:36 AM 46.4°F8.0°C 40.8°F4.9°C 81% 2.0 mph NE3.2 kmh NE 4.0 mph6.4 kmh 30.09 in1019.0 mb 0.00 in0.0 mm 0.00 in0.0 mm 0.00 in0.0 mm
01:46 AM 46.0°F7.8°C 40.5°F4.7°C 81% 2.0 mph E3.2 kmh E 4.0 mph6.4 kmh 30.10 in1019.3 mb 0.00 in0.0 mm 0.00 in0.0 mm 0.00 in0.0 mm
01:56 AM 46.4°F8.0°C 40.8°F4.9°C 81% 0.9 mph E1.4 kmh E 4.0 mph6.4 kmh 30.10 in1019.3 mb 0.00 in0.0 mm 0.00 in0.0 mm 0.00 in0.0 mm
02:06 AM 45.9°F7.7°C 40.6°F4.8°C 82% 0.9 mph ENE1.4 kmh ENE 2.9 mph4.7 kmh 30.10 in1019.3 mb 0.00 in0.0 mm 0.00 in0.0 mm 0.00 in0.0 mm
02:16 AM 45.3°F7.4°C 40.1°F4.5°C 82% 0.9 mph E1.4 kmh E 2.9 mph4.7 kmh 30.10 in1019.3 mb 0.00 in0.0 mm 0.00 in0.0 mm 0.00 in0.0 mm
02:26 AM 45.5°F7.5°C 40.3°F4.6°C 82% 0.9 mph E1.4 kmh E 2.9 mph4.7 kmh 30.10 in1019.3 mb 0.00 in0.0 mm 0.00 in0.0 mm 0.00 in0.0 mm
02:36 AM 45.3°F7.4°C 40.1°F4.5°C 82% 0.9 mph NE1.4 kmh NE 4.0 mph6.4 kmh 30.09 in1019.0 mb 0.00 in0.0 mm 0.00 in0.0 mm 0.00 in0.0 mm
02:46 AM 45.0°F7.2°C 39.7°F4.3°C 82% 0.9 mph ESE1.4 kmh ESE 4.0 mph6.4 kmh 30.09 in1019.0 mb 0.00 in0.0 mm 0.00 in0.0 mm 0.00 in0.0 mm
02:56 AM 45.0°F7.2°C 40.1°F4.5°C 83% 0.9 mph ESE1.4 kmh ESE 2.0 mph3.2 kmh 30.09 in1019.0 mb 0.00 in0.0 mm 0.00 in0.0 mm 0.00 in0.0 mm
03:06 AM 44.4°F6.9°C 39.6°F4.2°C 83% Calm Calm 2.0 mph3.2 kmh 30.10 in1019.3 mb 0.00 in0.0 mm 0.00 in0.0 mm 0.00 in0.0 mm
03:16 AM 44.2°F6.8°C 39.4°F4.1°C 83% Calm Calm 0.9 mph1.4 kmh 30.10 in1019.3 mb 0.00 in0.0 mm 0.00 in0.0 mm 0.00 in0.0 mm
03:26 AM 43.5°F6.4°C 39.0°F3.9°C 84% Calm Calm 2.0 mph3.2 kmh 30.10 in1019.3 mb 0.00 in0.0 mm 0.00 in0.0 mm 0.00 in0.0 mm
03:36 AM 43.5°F6.4°C 39.4°F4.1°C 85% Calm Calm 2.0 mph3.2 kmh 30.09 in1019.0 mb 0.00 in0.0 mm 0.00 in0.0 mm 0.00 in0.0 mm
03:46 AM 43.5°F6.4°C 39.0°F3.9°C 84% Calm Calm 2.0 mph3.2 kmh 30.09 in1019.0 mb 0.00 in0.0 mm 0.00 in0.0 mm 0.00 in0.0 mm
03:56 AM 44.2°F6.8°C 39.4°F4.1°C 83% 2.0 mph ENE3.2 kmh ENE 6.0 mph9.7 kmh 30.09 in1019.0 mb 0.00 in0.0 mm 0.00 in0.0 mm 0.00 in0.0 mm
04:06 AM 44.8°F7.1°C 39.4°F4.1°C 81% 2.9 mph E4.7 kmh E 6.0 mph9.7 kmh 30.09 in1019.0 mb 0.00 in0.0 mm 0.00 in0.0 mm 0.00 in0.0 mm
04:16 AM 44.8°F7.1°C 39.4°F4.1°C 81% 2.9 mph ESE4.7 kmh ESE 6.0 mph9.7 kmh 30.08 in1018.6 mb 0.00 in0.0 mm 0.00 in0.0 mm 0.00 in0.0 mm
04:26 AM 44.8°F7.1°C 39.4°F4.1°C 81% 2.9 mph ENE4.7 kmh ENE 6.0 mph9.7 kmh 30.08 in1018.6 mb 0.00 in0.0 mm 0.00 in0.0 mm 0.00 in0.0 mm
04:36 AM 45.0°F7.2°C 39.2°F4.0°C 80% 0.9 mph NE1.4 kmh NE 4.0 mph6.4 kmh 30.08 in1018.6 mb 0.00 in0.0 mm 0.00 in0.0 mm 0.00 in0.0 mm
04:46 AM 45.0°F7.2°C 39.2°F4.0°C 80% 0.9 mph E1.4 kmh E 4.0 mph6.4 kmh 30.08 in1018.6 mb 0.00 in0.0 mm 0.00 in0.0 mm 0.00 in0.0 mm
04:56 AM 44.8°F7.1°C 39.0°F3.9°C 80% 0.9 mph E1.4 kmh E 2.9 mph4.7 kmh 30.08 in1018.6 mb 0.00 in0.0 mm 0.00 in0.0 mm 0.00 in0.0 mm
05:06 AM 44.4°F6.9°C 39.0°F3.9°C 81% Calm Calm 2.0 mph3.2 kmh 30.08 in1018.6 mb 0.00 in0.0 mm 0.00 in0.0 mm 0.00 in0.0 mm
05:16 AM 44.4°F6.9°C 39.0°F3.9°C 81% 2.0 mph ENE3.2 kmh ENE 2.0 mph3.2 kmh 30.09 in1019.0 mb 0.00 in0.0 mm 0.00 in0.0 mm 0.00 in0.0 mm
05:26 AM 44.8°F7.1°C 39.0°F3.9°C 80% 2.0 mph E3.2 kmh E 4.0 mph6.4 kmh 30.09 in1019.0 mb 0.00 in0.0 mm 0.00 in0.0 mm 0.00 in0.0 mm
05:36 AM 44.8°F7.1°C 39.0°F3.9°C 80% 0.9 mph SE1.4 kmh SE 2.9 mph4.7 kmh 30.09 in1019.0 mb 0.00 in0.0 mm 0.00 in0.0 mm 0.00 in0.0 mm
05:46 AM 44.8°F7.1°C 39.0°F3.9°C 80% 0.9 mph E1.4 kmh E 2.9 mph4.7 kmh 30.10 in1019.3 mb 0.00 in0.0 mm 0.00 in0.0 mm 0.00 in0.0 mm
05:57 AM 44.4°F6.9°C 39.0°F3.9°C 81% Calm Calm 0.9 mph1.4 kmh 30.10 in1019.3 mb 0.00 in0.0 mm 0.00 in0.0 mm 0.00 in0.0 mm
06:07 AM 44.6°F7.0°C 38.8°F3.8°C 80% 0.9 mph NE1.4 kmh NE 2.9 mph4.7 kmh 30.10 in1019.3 mb 0.00 in0.0 mm 0.00 in0.0 mm 0.00 in0.0 mm
06:17 AM 45.0°F7.2°C 38.8°F3.8°C 79% 0.9 mph ESE1.4 kmh ESE 4.9 mph7.9 kmh 30.11 in1019.6 mb 0.00 in0.0 mm 0.00 in0.0 mm 0.00 in0.0 mm
06:27 AM 45.0°F7.2°C 38.8°F3.8°C 79% 0.9 mph ENE1.4 kmh ENE 2.9 mph4.7 kmh 30.10 in1019.3 mb 0.00 in0.0 mm 0.00 in0.0 mm 0.00 in0.0 mm
06:37 AM 45.1°F7.3°C 38.3°F3.5°C 77% 2.0 mph NE3.2 kmh NE 5.0 mph8.0 kmh 30.10 in1019.3 mb 0.00 in0.0 mm 0.00 in0.0 mm 0.00 in0.0 mm
06:47 AM 45.3°F7.4°C 38.5°F3.6°C 77% 2.9 mph NE4.7 kmh NE 6.9 mph11.1 kmh 30.10 in1019.3 mb 0.00 in0.0 mm 0.00 in0.0 mm 0.00 in0.0 mm
06:57 AM 45.3°F7.4°C 38.5°F3.6°C 77% 4.0 mph NE6.4 kmh NE 8.1 mph13.0 kmh 30.09 in1019.0 mb 0.00 in0.0 mm 0.00 in0.0 mm 0.00 in0.0 mm
07:07 AM 45.0°F7.2°C 38.1°F3.4°C 77% 4.0 mph E6.4 kmh E 8.9 mph14.3 kmh 30.09 in1019.0 mb 0.00 in0.0 mm 0.00 in0.0 mm 0.00 in0.0 mm
07:17 AM 45.1°F7.3°C 38.3°F3.5°C 77% 4.9 mph NE7.9 kmh NE 8.1 mph13.0 kmh 30.09 in1019.0 mb 0.00 in0.0 mm 0.00 in0.0 mm 0.00 in0.0 mm
07:27 AM 45.3°F7.4°C 38.1°F3.4°C 76% 6.0 mph ENE9.7 kmh ENE 8.9 mph14.3 kmh 30.09 in1019.0 mb 0.00 in0.0 mm 0.00 in0.0 mm 0.00 in0.0 mm
07:37 AM 45.1°F7.3°C 37.8°F3.2°C 75% 4.9 mph NE7.9 kmh NE 8.9 mph14.3 kmh 30.09 in1019.0 mb 0.00 in0.0 mm 0.00 in0.0 mm 0.00 in0.0 mm
07:47 AM 45.3°F7.4°C 37.6°F3.1°C 74% 4.9 mph NE7.9 kmh NE 8.1 mph13.0 kmh 30.09 in1019.0 mb 0.00 in0.0 mm 0.00 in0.0 mm 0.00 in0.0 mm
07:57 AM 46.0°F7.8°C 37.9°F3.3°C 73% 2.9 mph E4.7 kmh E 6.9 mph11.1 kmh 30.09 in1019.0 mb 0.00 in0.0 mm 0.00 in0.0 mm 0.00 in0.0 mm
08:07 AM 46.0°F7.8°C 37.9°F3.3°C 73% 2.9 mph ENE4.7 kmh ENE 6.0 mph9.7 kmh 30.09 in1019.0 mb 0.00 in0.0 mm 0.00 in0.0 mm 0.00 in0.0 mm
08:17 AM 46.8°F8.2°C 38.3°F3.5°C 72% 0.9 mph E1.4 kmh E 2.9 mph4.7 kmh 30.09 in1019.0 mb 0.00 in0.0 mm 0.00 in0.0 mm 0.00 in0.0 mm
08:27 AM 46.9°F8.3°C 38.1°F3.4°C 71% 2.0 mph ENE3.2 kmh ENE 4.9 mph7.9 kmh 30.09 in1019.0 mb 0.00 in0.0 mm 0.00 in0.0 mm 0.00 in0.0 mm
08:37 AM 47.8°F8.8°C 38.5°F3.6°C 70% 2.0 mph E3.2 kmh E 6.0 mph9.7 kmh 30.09 in1019.0 mb 0.00 in0.0 mm 0.00 in0.0 mm 0.00 in0.0 mm
08:47 AM 48.9°F9.4°C 38.8°F3.8°C 68% 2.9 mph ENE4.7 kmh ENE 6.9 mph11.1 kmh 30.10 in1019.3 mb 0.00 in0.0 mm 0.00 in0.0 mm 0.00 in0.0 mm
08:57 AM 51.3°F10.7°C 39.6°F4.2°C 64% 4.0 mph ENE6.4 kmh ENE 8.1 mph13.0 kmh 30.10 in1019.3 mb 0.00 in0.0 mm 0.00 in0.0 mm 0.00 in0.0 mm
09:07 AM 54.0°F12.2°C 40.5°F4.7°C 60% 2.0 mph E3.2 kmh E 4.9 mph7.9 kmh 30.10 in1019.3 mb 0.00 in0.0 mm 0.00 in0.0 mm 0.00 in0.0 mm
09:17 AM 55.6°F13.1°C 40.1°F4.5°C 56% 0.9 mph NE1.4 kmh NE 3.0 mph4.8 kmh 30.10 in1019.3 mb 0.00 in0.0 mm 0.00 in0.0 mm 0.00 in0.0 mm
09:27 AM 57.7°F14.3°C 40.6°F4.8°C 53% 0.9 mph NE1.4 kmh NE 3.0 mph4.8 kmh 30.11 in1019.6 mb 0.00 in0.0 mm 0.00 in0.0 mm 0.00 in0.0 mm
09:37 AM 60.3°F15.7°C 39.9°F4.4°C 47% 2.0 mph NE3.2 kmh NE 4.9 mph7.9 kmh 30.11 in1019.6 mb 0.00 in0.0 mm 0.00 in0.0 mm 0.00 in0.0 mm
09:47 AM 62.2°F16.8°C 38.8°F3.8°C 42% 2.0 mph N3.2 kmh N 4.9 mph7.9 kmh 30.11 in1019.6 mb 0.00 in0.0 mm 0.00 in0.0 mm 0.00 in0.0 mm
09:57 AM 63.7°F17.6°C 36.1°F2.3°C 36% 2.9 mph NE4.7 kmh NE 6.9 mph11.1 kmh 30.11 in1019.6 mb 0.00 in0.0 mm 0.00 in0.0 mm 0.00 in0.0 mm
10:07 AM 64.4°F18.0°C 36.1°F2.3°C 35% 2.9 mph ENE4.7 kmh ENE 6.0 mph9.7 kmh 30.11 in1019.6 mb 0.00 in0.0 mm 0.00 in0.0 mm 0.00 in0.0 mm
10:17 AM 65.3°F18.5°C 36.1°F2.3°C 34% 2.0 mph NNE3.2 kmh NNE 6.0 mph9.7 kmh 30.11 in1019.6 mb 0.00 in0.0 mm 0.00 in0.0 mm 0.00 in0.0 mm
10:27 AM 66.4°F19.1°C 35.6°F2.0°C 32% 2.9 mph N4.7 kmh N 6.9 mph11.1 kmh 30.11 in1019.6 mb 0.00 in0.0 mm 0.00 in0.0 mm 0.00 in0.0 mm
10:37 AM 66.7°F19.3°C 33.4°F0.8°C 29% 4.9 mph NE7.9 kmh NE 10.1 mph16.3 kmh 30.11 in1019.6 mb 0.00 in0.0 mm 0.00 in0.0 mm 0.00 in0.0 mm
10:47 AM 67.8°F19.9°C 34.3°F1.3°C 29% 4.0 mph NE6.4 kmh NE 8.9 mph14.3 kmh 30.11 in1019.6 mb 0.00 in0.0 mm 0.00 in0.0 mm 0.00 in0.0 mm
10:57 AM 68.4°F20.2°C 34.9°F1.6°C 29% 4.0 mph NE6.4 kmh NE 8.9 mph14.3 kmh 30.10 in1019.3 mb 0.00 in0.0 mm 0.00 in0.0 mm 0.00 in0.0 mm
11:07 AM 68.4°F20.2°C 32.2°F0.1°C 26% 4.9 mph NNE7.9 kmh NNE 10.1 mph16.3 kmh 30.10 in1019.3 mb 0.00 in0.0 mm 0.00 in0.0 mm 0.00 in0.0 mm
11:17 AM 68.5°F20.3°C 32.4°F0.2°C 26% 4.0 mph N6.4 kmh N 10.1 mph16.3 kmh 30.10 in1019.3 mb 0.00 in0.0 mm 0.00 in0.0 mm 0.00 in0.0 mm
11:27 AM 68.7°F20.4°C 31.5°F-0.3°C 25% 4.0 mph NW6.4 kmh NW 8.9 mph14.3 kmh 30.10 in1019.3 mb 0.00 in0.0 mm 0.00 in0.0 mm 0.00 in0.0 mm
11:37 AM 69.6°F20.9°C 32.2°F0.1°C 25% 2.9 mph NE4.7 kmh NE 6.9 mph11.1 kmh 30.10 in1019.3 mb 0.00 in0.0 mm 0.00 in0.0 mm 0.00 in0.0 mm
11:47 AM 70.2°F21.2°C 31.6°F-0.2°C 24% 2.0 mph NNE3.2 kmh NNE 6.0 mph9.7 kmh 30.10 in1019.3 mb 0.00 in0.0 mm 0.00 in0.0 mm 0.00 in0.0 mm
11:57 AM 70.5°F21.4°C 32.0°F0.0°C 24% 2.0 mph NW3.2 kmh NW 6.0 mph9.7 kmh 30.09 in1019.0 mb 0.00 in0.0 mm 0.00 in0.0 mm 0.00 in0.0 mm
12:07 PM 71.1°F21.7°C 32.4°F0.2°C 24% 2.0 mph NNW3.2 kmh NNW 4.0 mph6.4 kmh 30.09 in1019.0 mb 0.00 in0.0 mm 0.00 in0.0 mm 0.00 in0.0 mm
12:17 PM 71.1°F21.7°C 33.4°F0.8°C 25% 2.0 mph NW3.2 kmh NW 5.0 mph8.0 kmh 30.09 in1019.0 mb 0.00 in0.0 mm 0.00 in0.0 mm 0.00 in0.0 mm
12:27 PM 71.1°F21.7°C 31.5°F-0.3°C 23% 2.9 mph NW4.7 kmh NW 6.0 mph9.7 kmh 30.08 in1018.6 mb 0.00 in0.0 mm 0.00 in0.0 mm 0.00 in0.0 mm
12:37 PM 71.8°F22.1°C 33.1°F0.6°C 24% 0.9 mph N1.4 kmh N 2.9 mph4.7 kmh 30.08 in1018.6 mb 0.00 in0.0 mm 0.00 in0.0 mm 0.00 in0.0 mm
12:47 PM 71.8°F22.1°C 33.1°F0.6°C 24% 0.9 mph NW1.4 kmh NW 6.0 mph9.7 kmh 30.07 in1018.3 mb 0.00 in0.0 mm 0.00 in0.0 mm 0.00 in0.0 mm
12:57 PM 71.4°F21.9°C 31.6°F-0.2°C 23% 2.9 mph NNW4.7 kmh NNW 6.0 mph9.7 kmh 30.07 in1018.3 mb 0.00 in0.0 mm 0.00 in0.0 mm 0.00 in0.0 mm
01:07 PM 72.0°F22.2°C 32.2°F0.1°C 23% 2.9 mph WNW4.7 kmh WNW 7.0 mph11.3 kmh 30.06 in1017.9 mb 0.00 in0.0 mm 0.00 in0.0 mm 0.00 in0.0 mm
01:17 PM 73.0°F22.8°C 29.7°F-1.3°C 20% 2.9 mph SE4.7 kmh SE 6.0 mph9.7 kmh 30.05 in1017.6 mb 0.00 in0.0 mm 0.00 in0.0 mm 0.00 in0.0 mm
01:27 PM 72.9°F22.7°C 29.5°F-1.4°C 20% 4.0 mph WNW6.4 kmh WNW 9.0 mph14.5 kmh 30.05 in1017.6 mb 0.00 in0.0 mm 0.00 in0.0 mm 0.00 in0.0 mm
01:37 PM 72.5°F22.5°C 29.1°F-1.6°C 20% 4.0 mph NNW6.4 kmh NNW 8.1 mph13.0 kmh 30.04 in1017.3 mb 0.00 in0.0 mm 0.00 in0.0 mm 0.00 in0.0 mm
01:47 PM 73.0°F22.8°C 29.7°F-1.3°C 20% 2.0 mph WSW3.2 kmh WSW 7.0 mph11.3 kmh 30.03 in1016.9 mb 0.00 in0.0 mm 0.00 in0.0 mm 0.00 in0.0 mm
01:57 PM 72.9°F22.7°C 34.0°F1.1°C 24% 4.0 mph W6.4 kmh W 9.0 mph14.5 kmh 30.03 in1016.9 mb 0.00 in0.0 mm 0.00 in0.0 mm 0.00 in0.0 mm
02:07 PM 73.8°F23.2°C 33.6°F0.9°C 23% 4.0 mph WNW6.4 kmh WNW 8.9 mph14.3 kmh 30.02 in1016.6 mb 0.00 in0.0 mm 0.00 in0.0 mm 0.00 in0.0 mm
02:17 PM 73.9°F23.3°C 34.9°F1.6°C 24% 4.9 mph SW7.9 kmh SW 14.1 mph22.7 kmh 30.01 in1016.3 mb 0.00 in0.0 mm 0.00 in0.0 mm 0.00 in0.0 mm
02:27 PM 74.1°F23.4°C 31.6°F-0.2°C 21% 4.0 mph W6.4 kmh W 19.9 mph32.0 kmh 30.01 in1016.3 mb 0.00 in0.0 mm 0.00 in0.0 mm 0.00 in0.0 mm
02:37 PM 74.1°F23.4°C 31.6°F-0.2°C 21% 4.0 mph W6.4 kmh W 12.1 mph19.5 kmh 30.01 in1016.3 mb 0.00 in0.0 mm 0.00 in0.0 mm 0.00 in0.0 mm
02:47 PM 73.6°F23.1°C 32.4°F0.2°C 22% 6.9 mph W11.1 kmh W 13.0 mph20.9 kmh 30.00 in1015.9 mb 0.00 in0.0 mm 0.00 in0.0 mm 0.00 in0.0 mm
02:57 PM 73.6°F23.1°C 33.4°F0.8°C 23% 8.1 mph WNW13.0 kmh WNW 15.0 mph24.1 kmh 30.00 in1015.9 mb 0.00 in0.0 mm 0.00 in0.0 mm 0.00 in0.0 mm
03:07 PM 73.2°F22.9°C 33.3°F0.7°C 23% 8.1 mph WNW13.0 kmh WNW 14.1 mph22.7 kmh 30.00 in1015.9 mb 0.00 in0.0 mm 0.00 in0.0 mm 0.00 in0.0 mm
03:17 PM 73.4°F23.0°C 32.2°F0.1°C 22% 6.9 mph NW11.1 kmh NW 13.0 mph20.9 kmh 29.99 in1015.6 mb 0.00 in0.0 mm 0.00 in0.0 mm 0.00 in0.0 mm
03:27 PM 73.0°F22.8°C 32.0°F0.0°C 22% 8.1 mph NW13.0 kmh NW 13.0 mph20.9 kmh 29.99 in1015.6 mb 0.00 in0.0 mm 0.00 in0.0 mm 0.00 in0.0 mm
03:37 PM 72.9°F22.7°C 32.9°F0.5°C 23% 8.1 mph W13.0 kmh W 15.0 mph24.1 kmh 29.99 in1015.6 mb 0.00 in0.0 mm 0.00 in0.0 mm 0.00 in0.0 mm
03:47 PM 72.3°F22.4°C 32.4°F0.2°C 23% 8.9 mph W14.3 kmh W 14.1 mph22.7 kmh 29.99 in1015.6 mb 0.00 in0.0 mm 0.00 in0.0 mm 0.00 in0.0 mm
03:57 PM 72.3°F22.4°C 30.2°F-1.0°C 21% 8.9 mph WNW14.3 kmh WNW 16.1 mph25.9 kmh 29.99 in1015.6 mb 0.00 in0.0 mm 0.00 in0.0 mm 0.00 in0.0 mm
04:07 PM 72.3°F22.4°C 31.3°F-0.4°C 22% 8.9 mph W14.3 kmh W 16.1 mph25.9 kmh 29.99 in1015.6 mb 0.00 in0.0 mm 0.00 in0.0 mm 0.00 in0.0 mm
04:17 PM 72.3°F22.4°C 31.3°F-0.4°C 22% 8.9 mph WNW14.3 kmh WNW 15.0 mph24.1 kmh 29.99 in1015.6 mb 0.00 in0.0 mm 0.00 in0.0 mm 0.00 in0.0 mm
04:27 PM 72.0°F22.2°C 29.8°F-1.2°C 21% 8.9 mph W14.3 kmh W 13.0 mph20.9 kmh 29.99 in1015.6 mb 0.00 in0.0 mm 0.00 in0.0 mm 0.00 in0.0 mm
04:37 PM 71.8°F22.1°C 30.9°F-0.6°C 22% 8.1 mph NW13.0 kmh NW 14.1 mph22.7 kmh 30.00 in1015.9 mb 0.00 in0.0 mm 0.00 in0.0 mm 0.00 in0.0 mm
04:47 PM 71.8°F22.1°C 30.9°F-0.6°C 22% 6.9 mph WNW11.1 kmh WNW 13.0 mph20.9 kmh 30.00 in1015.9 mb 0.00 in0.0 mm 0.00 in0.0 mm 0.00 in0.0 mm
04:57 PM 71.2°F21.8°C 30.4°F-0.9°C 22% 8.1 mph WNW13.0 kmh WNW 14.1 mph22.7 kmh 30.00 in1015.9 mb 0.00 in0.0 mm 0.00 in0.0 mm 0.00 in0.0 mm
05:07 PM 70.9°F21.6°C 30.2°F-1.0°C 22% 8.1 mph W13.0 kmh W 14.1 mph22.7 kmh 30.00 in1015.9 mb 0.00 in0.0 mm 0.00 in0.0 mm 0.00 in0.0 mm
05:17 PM 70.5°F21.4°C 29.8°F-1.2°C 22% 6.9 mph WSW11.1 kmh WSW 13.0 mph20.9 kmh 30.01 in1016.3 mb 0.00 in0.0 mm 0.00 in0.0 mm 0.00 in0.0 mm
05:27 PM 70.5°F21.4°C 29.8°F-1.2°C 22% 4.9 mph WSW7.9 kmh WSW 11.0 mph17.7 kmh 30.01 in1016.3 mb 0.00 in0.0 mm 0.00 in0.0 mm 0.00 in0.0 mm
05:37 PM 70.3°F21.3°C 29.7°F-1.3°C 22% 6.0 mph W9.7 kmh W 11.0 mph17.7 kmh 30.01 in1016.3 mb 0.00 in0.0 mm 0.00 in0.0 mm 0.00 in0.0 mm
05:47 PM 70.3°F21.3°C 29.7°F-1.3°C 22% 2.9 mph SW4.7 kmh SW 8.1 mph13.0 kmh 30.01 in1016.3 mb 0.00 in0.0 mm 0.00 in0.0 mm 0.00 in0.0 mm
05:57 PM 69.6°F20.9°C 30.2°F-1.0°C 23% 4.0 mph WSW6.4 kmh WSW 10.1 mph16.3 kmh 30.02 in1016.6 mb 0.00 in0.0 mm 0.00 in0.0 mm 0.00 in0.0 mm
06:07 PM 69.1°F20.6°C 30.7°F-0.7°C 24% 4.0 mph WSW6.4 kmh WSW 8.9 mph14.3 kmh 30.02 in1016.6 mb 0.00 in0.0 mm 0.00 in0.0 mm 0.00 in0.0 mm
06:17 PM 68.4°F20.2°C 30.2°F-1.0°C 24% 2.9 mph WSW4.7 kmh WSW 6.9 mph11.1 kmh 30.02 in1016.6 mb 0.00 in0.0 mm 0.00 in0.0 mm 0.00 in0.0 mm
06:27 PM 67.5°F19.7°C 30.4°F-0.9°C 25% 2.0 mph WSW3.2 kmh WSW 6.0 mph9.7 kmh 30.02 in1016.6 mb 0.00 in0.0 mm 0.00 in0.0 mm 0.00 in0.0 mm
06:37 PM 66.2°F19.0°C 31.3°F-0.4°C 27% 0.9 mph SW1.4 kmh SW 4.0 mph6.4 kmh 30.02 in1016.6 mb 0.00 in0.0 mm 0.00 in0.0 mm 0.00 in0.0 mm
06:47 PM 64.9°F18.3°C 31.1°F-0.5°C 28% Calm Calm 0.9 mph1.4 kmh 30.02 in1016.6 mb 0.00 in0.0 mm 0.00 in0.0 mm 0.00 in0.0 mm
06:57 PM 63.9°F17.7°C 32.7°F0.4°C 31% Calm Calm 2.0 mph3.2 kmh 30.03 in1016.9 mb 0.00 in0.0 mm 0.00 in0.0 mm 0.00 in0.0 mm
07:07 PM 62.2°F16.8°C 33.4°F0.8°C 34% 0.9 mph SE1.4 kmh SE 2.0 mph3.2 kmh 30.03 in1016.9 mb 0.00 in0.0 mm 0.00 in0.0 mm 0.00 in0.0 mm
07:17 PM 60.8°F16.0°C 33.6°F0.9°C 36% 0.9 mph SE1.4 kmh SE 2.0 mph3.2 kmh 30.03 in1016.9 mb 0.00 in0.0 mm 0.00 in0.0 mm 0.00 in0.0 mm
07:27 PM 59.5°F15.3°C 34.0°F1.1°C 38% 0.9 mph SSE1.4 kmh SSE 3.0 mph4.8 kmh 30.03 in1016.9 mb 0.00 in0.0 mm 0.00 in0.0 mm 0.00 in0.0 mm
07:37 PM 58.8°F14.9°C 34.0°F1.1°C 39% 2.0 mph ESE3.2 kmh ESE 2.9 mph4.7 kmh 30.03 in1016.9 mb 0.00 in0.0 mm 0.00 in0.0 mm 0.00 in0.0 mm
07:47 PM 58.6°F14.8°C 33.1°F0.6°C 38% 2.0 mph SE3.2 kmh SE 2.9 mph4.7 kmh 30.04 in1017.3 mb 0.00 in0.0 mm 0.00 in0.0 mm 0.00 in0.0 mm
07:57 PM 57.9°F14.4°C 33.1°F0.6°C 39% 0.9 mph SE1.4 kmh SE 2.9 mph4.7 kmh 30.04 in1017.3 mb 0.00 in0.0 mm 0.00 in0.0 mm 0.00 in0.0 mm
08:07 PM 56.8°F13.8°C 33.4°F0.8°C 41% 0.9 mph ESE1.4 kmh ESE 2.9 mph4.7 kmh 30.04 in1017.3 mb 0.00 in0.0 mm 0.00 in0.0 mm 0.00 in0.0 mm
08:17 PM 56.5°F13.6°C 33.6°F0.9°C 42% 0.9 mph SE1.4 kmh SE 2.9 mph4.7 kmh 30.04 in1017.3 mb 0.00 in0.0 mm 0.00 in0.0 mm 0.00 in0.0 mm
08:27 PM 55.9°F13.3°C 32.5°F0.3°C 41% 2.0 mph SE3.2 kmh SE 2.0 mph3.2 kmh 30.05 in1017.6 mb 0.00 in0.0 mm 0.00 in0.0 mm 0.00 in0.0 mm
08:37 PM 55.0°F12.8°C 32.9°F0.5°C 43% 0.9 mph E1.4 kmh E 3.0 mph4.8 kmh 30.05 in1017.6 mb 0.00 in0.0 mm 0.00 in0.0 mm 0.00 in0.0 mm
08:47 PM 54.3°F12.4°C 32.4°F0.2°C 43% 0.9 mph ESE1.4 kmh ESE 2.0 mph3.2 kmh 30.05 in1017.6 mb 0.00 in0.0 mm 0.00 in0.0 mm 0.00 in0.0 mm
08:57 PM 53.4°F11.9°C 32.5°F0.3°C 45% 0.9 mph ESE1.4 kmh ESE 2.0 mph3.2 kmh 30.05 in1017.6 mb 0.00 in0.0 mm 0.00 in0.0 mm 0.00 in0.0 mm
09:07 PM 53.2°F11.8°C 31.8°F-0.1°C 44% 0.9 mph ENE1.4 kmh ENE 2.0 mph3.2 kmh 30.05 in1017.6 mb 0.00 in0.0 mm 0.00 in0.0 mm 0.00 in0.0 mm
09:17 PM 53.1°F11.7°C 31.1°F-0.5°C 43% 0.9 mph E1.4 kmh E 2.9 mph4.7 kmh 30.05 in1017.6 mb 0.00 in0.0 mm 0.00 in0.0 mm 0.00 in0.0 mm
09:27 PM 53.2°F11.8°C 30.2°F-1.0°C 41% 0.9 mph ENE1.4 kmh ENE 4.0 mph6.4 kmh 30.06 in1017.9 mb 0.00 in0.0 mm 0.00 in0.0 mm 0.00 in0.0 mm
09:37 PM 53.2°F11.8°C 30.2°F-1.0°C 41% 0.9 mph NE1.4 kmh NE 4.0 mph6.4 kmh 30.06 in1017.9 mb 0.00 in0.0 mm 0.00 in0.0 mm 0.00 in0.0 mm
09:47 PM 52.3°F11.3°C 29.8°F-1.2°C 42% 2.0 mph ENE3.2 kmh ENE 4.0 mph6.4 kmh 30.06 in1017.9 mb 0.00 in0.0 mm 0.00 in0.0 mm 0.00 in0.0 mm
09:57 PM 52.0°F11.1°C 30.2°F-1.0°C 43% 0.9 mph E1.4 kmh E 4.0 mph6.4 kmh 30.07 in1018.3 mb 0.00 in0.0 mm 0.00 in0.0 mm 0.00 in0.0 mm
10:07 PM 51.8°F11.0°C 30.0°F-1.1°C 43% 2.0 mph ENE3.2 kmh ENE 4.0 mph6.4 kmh 30.07 in1018.3 mb 0.00 in0.0 mm 0.00 in0.0 mm 0.00 in0.0 mm
10:17 PM 51.4°F10.8°C 30.2°F-1.0°C 44% 0.9 mph ENE1.4 kmh ENE 4.0 mph6.4 kmh 30.08 in1018.6 mb 0.00 in0.0 mm 0.00 in0.0 mm 0.00 in0.0 mm
10:27 PM 50.7°F10.4°C 30.2°F-1.0°C 45% 2.0 mph ENE3.2 kmh ENE 5.0 mph8.0 kmh 30.08 in1018.6 mb 0.00 in0.0 mm 0.00 in0.0 mm 0.00 in0.0 mm
10:37 PM 50.7°F10.4°C 30.7°F-0.7°C 46% 2.9 mph ENE4.7 kmh ENE 6.0 mph9.7 kmh 30.08 in1018.6 mb 0.00 in0.0 mm 0.00 in0.0 mm 0.00 in0.0 mm
10:47 PM 50.4°F10.2°C 30.9°F-0.6°C 47% 2.9 mph ENE4.7 kmh ENE 6.9 mph11.1 kmh 30.08 in1018.6 mb 0.00 in0.0 mm 0.00 in0.0 mm 0.00 in0.0 mm
10:57 PM 49.6°F9.8°C 30.7°F-0.7°C 48% 2.0 mph ESE3.2 kmh ESE 5.0 mph8.0 kmh 30.08 in1018.6 mb 0.00 in0.0 mm 0.00 in0.0 mm 0.00 in0.0 mm
11:07 PM 49.3°F9.6°C 30.9°F-0.6°C 49% 2.9 mph NE4.7 kmh NE 4.9 mph7.9 kmh 30.08 in1018.6 mb 0.00 in0.0 mm 0.00 in0.0 mm 0.00 in0.0 mm
11:17 PM 48.7°F9.3°C 30.9°F-0.6°C 50% 2.9 mph ENE4.7 kmh ENE 6.9 mph11.1 kmh 30.08 in1018.6 mb 0.00 in0.0 mm 0.00 in0.0 mm 0.00 in0.0 mm
11:27 PM 48.9°F9.4°C 30.6°F-0.8°C 49% 2.0 mph E3.2 kmh E 6.0 mph9.7 kmh 30.08 in1018.6 mb 0.00 in0.0 mm 0.00 in0.0 mm 0.00 in0.0 mm
11:37 PM 48.7°F9.3°C 30.4°F-0.9°C 49% 2.0 mph E3.2 kmh E 4.0 mph6.4 kmh 30.08 in1018.6 mb 0.00 in0.0 mm 0.00 in0.0 mm 0.00 in0.0 mm
11:47 PM 48.4°F9.1°C 31.1°F-0.5°C 51% 2.9 mph ENE4.7 kmh ENE 8.9 mph14.3 kmh 30.09 in1019.0 mb 0.00 in0.0 mm 0.00 in0.0 mm 0.00 in0.0 mm
11:57 PM 47.8°F8.8°C 31.1°F-0.5°C 52% 4.9 mph NE7.9 kmh NE 11.0 mph17.7 kmh 30.09 in1019.0 mb 0.00 in0.0 mm 0.00 in0.0 mm 0.00 in0.0 mm